sensor_id;sensor_type;location;lat;lon;timestamp;P1;durP1;ratioP1;P2;durP2;ratioP2
25952;SDS011;13750;50.804;8.764;2023-07-29T00:01:40;0.80;;;0.70;;
25952;SDS011;13750;50.804;8.764;2023-07-29T00:04:06;0.77;;;0.65;;
25952;SDS011;13750;50.804;8.764;2023-07-29T00:06:33;0.63;;;0.63;;
25952;SDS011;13750;50.804;8.764;2023-07-29T00:08:58;0.70;;;0.70;;
25952;SDS011;13750;50.804;8.764;2023-07-29T00:11:24;0.80;;;0.73;;
25952;SDS011;13750;50.804;8.764;2023-07-29T00:13:49;0.77;;;0.77;;
25952;SDS011;13750;50.804;8.764;2023-07-29T00:16:15;0.80;;;0.80;;
25952;SDS011;13750;50.804;8.764;2023-07-29T00:18:42;0.88;;;0.80;;
25952;SDS011;13750;50.804;8.764;2023-07-29T00:21:08;0.68;;;0.60;;
25952;SDS011;13750;50.804;8.764;2023-07-29T00:23:34;0.87;;;0.70;;
25952;SDS011;13750;50.804;8.764;2023-07-29T00:25:59;0.70;;;0.60;;
25952;SDS011;13750;50.804;8.764;2023-07-29T00:28:25;0.70;;;0.70;;
25952;SDS011;13750;50.804;8.764;2023-07-29T00:30:50;0.60;;;0.60;;
25952;SDS011;13750;50.804;8.764;2023-07-29T00:33:16;0.77;;;0.60;;
25952;SDS011;13750;50.804;8.764;2023-07-29T00:35:42;0.70;;;0.70;;
25952;SDS011;13750;50.804;8.764;2023-07-29T00:38:07;0.80;;;0.60;;
25952;SDS011;13750;50.804;8.764;2023-07-29T00:40:35;1.03;;;0.90;;
25952;SDS011;13750;50.804;8.764;2023-07-29T00:43:01;0.70;;;0.50;;
25952;SDS011;13750;50.804;8.764;2023-07-29T00:45:27;0.60;;;0.60;;
25952;SDS011;13750;50.804;8.764;2023-07-29T00:47:54;0.75;;;0.60;;
25952;SDS011;13750;50.804;8.764;2023-07-29T00:50:20;0.60;;;0.60;;
25952;SDS011;13750;50.804;8.764;2023-07-29T00:52:46;0.70;;;0.60;;
25952;SDS011;13750;50.804;8.764;2023-07-29T00:55:11;0.70;;;0.70;;
25952;SDS011;13750;50.804;8.764;2023-07-29T00:57:37;0.70;;;0.70;;
25952;SDS011;13750;50.804;8.764;2023-07-29T01:02:30;0.57;;;0.57;;
25952;SDS011;13750;50.804;8.764;2023-07-29T01:04:57;0.88;;;0.60;;
25952;SDS011;13750;50.804;8.764;2023-07-29T01:07:29;0.82;;;0.75;;
25952;SDS011;13750;50.804;8.764;2023-07-29T01:13:10;0.80;;;0.80;;
25952;SDS011;13750;50.804;8.764;2023-07-29T01:15:54;1.33;;;1.20;;
25952;SDS011;13750;50.804;8.764;2023-07-29T01:18:28;0.73;;;0.73;;
25952;SDS011;13750;50.804;8.764;2023-07-29T01:21:00;1.00;;;0.90;;
25952;SDS011;13750;50.804;8.764;2023-07-29T01:23:29;0.80;;;0.80;;
25952;SDS011;13750;50.804;8.764;2023-07-29T01:25:56;0.90;;;0.80;;
25952;SDS011;13750;50.804;8.764;2023-07-29T01:28:21;1.93;;;1.17;;
25952;SDS011;13750;50.804;8.764;2023-07-29T01:30:48;1.30;;;1.20;;
25952;SDS011;13750;50.804;8.764;2023-07-29T01:33:18;1.10;;;1.00;;
25952;SDS011;13750;50.804;8.764;2023-07-29T01:35:50;0.80;;;0.80;;
25952;SDS011;13750;50.804;8.764;2023-07-29T01:38:29;0.70;;;0.70;;
25952;SDS011;13750;50.804;8.764;2023-07-29T01:41:00;0.80;;;0.80;;
25952;SDS011;13750;50.804;8.764;2023-07-29T01:43:27;0.70;;;0.70;;
25952;SDS011;13750;50.804;8.764;2023-07-29T01:45:56;0.93;;;0.88;;
25952;SDS011;13750;50.804;8.764;2023-07-29T01:48:22;0.80;;;0.77;;
25952;SDS011;13750;50.804;8.764;2023-07-29T01:50:48;0.70;;;0.70;;
25952;SDS011;13750;50.804;8.764;2023-07-29T01:53:14;0.77;;;0.77;;
25952;SDS011;13750;50.804;8.764;2023-07-29T01:55:40;1.03;;;0.93;;
25952;SDS011;13750;50.804;8.764;2023-07-29T01:58:06;1.08;;;0.80;;
25952;SDS011;13750;50.804;8.764;2023-07-29T02:00:32;1.17;;;1.07;;
25952;SDS011;13750;50.804;8.764;2023-07-29T02:02:57;1.37;;;1.27;;
25952;SDS011;13750;50.804;8.764;2023-07-29T02:05:23;1.20;;;1.10;;
25952;SDS011;13750;50.804;8.764;2023-07-29T02:07:48;0.90;;;0.90;;
25952;SDS011;13750;50.804;8.764;2023-07-29T02:10:14;1.00;;;0.90;;
25952;SDS011;13750;50.804;8.764;2023-07-29T02:12:40;0.93;;;0.87;;
25952;SDS011;13750;50.804;8.764;2023-07-29T02:15:06;1.10;;;1.00;;
25952;SDS011;13750;50.804;8.764;2023-07-29T02:17:32;1.20;;;1.00;;
25952;SDS011;13750;50.804;8.764;2023-07-29T02:19:57;1.10;;;1.00;;
25952;SDS011;13750;50.804;8.764;2023-07-29T02:22:23;0.97;;;0.87;;
25952;SDS011;13750;50.804;8.764;2023-07-29T02:24:48;1.17;;;1.07;;
25952;SDS011;13750;50.804;8.764;2023-07-29T02:27:14;1.20;;;1.10;;
25952;SDS011;13750;50.804;8.764;2023-07-29T02:29:39;0.97;;;0.97;;
25952;SDS011;13750;50.804;8.764;2023-07-29T02:32:05;1.03;;;1.00;;
25952;SDS011;13750;50.804;8.764;2023-07-29T02:34:31;1.30;;;1.20;;
25952;SDS011;13750;50.804;8.764;2023-07-29T02:36:56;0.80;;;0.77;;
25952;SDS011;13750;50.804;8.764;2023-07-29T02:39:22;1.37;;;1.27;;
25952;SDS011;13750;50.804;8.764;2023-07-29T02:41:48;1.90;;;1.70;;
25952;SDS011;13750;50.804;8.764;2023-07-29T02:44:14;1.63;;;1.42;;
25952;SDS011;13750;50.804;8.764;2023-07-29T02:46:40;1.52;;;1.10;;
25952;SDS011;13750;50.804;8.764;2023-07-29T02:49:06;1.07;;;1.03;;
25952;SDS011;13750;50.804;8.764;2023-07-29T02:51:31;1.20;;;1.10;;
25952;SDS011;13750;50.804;8.764;2023-07-29T02:53:57;1.33;;;1.23;;
25952;SDS011;13750;50.804;8.764;2023-07-29T02:56:22;1.70;;;1.50;;
25952;SDS011;13750;50.804;8.764;2023-07-29T02:58:48;1.40;;;1.10;;
25952;SDS011;13750;50.804;8.764;2023-07-29T03:01:16;1.30;;;1.20;;
25952;SDS011;13750;50.804;8.764;2023-07-29T03:03:42;1.40;;;1.30;;
25952;SDS011;13750;50.804;8.764;2023-07-29T03:06:08;0.80;;;0.80;;
25952;SDS011;13750;50.804;8.764;2023-07-29T03:08:35;1.30;;;1.20;;
25952;SDS011;13750;50.804;8.764;2023-07-29T03:11:08;1.63;;;1.40;;
25952;SDS011;13750;50.804;8.764;2023-07-29T03:13:35;1.20;;;1.10;;
25952;SDS011;13750;50.804;8.764;2023-07-29T03:16:08;1.92;;;1.60;;
25952;SDS011;13750;50.804;8.764;2023-07-29T03:18:41;1.67;;;1.50;;
25952;SDS011;13750;50.804;8.764;2023-07-29T03:21:08;1.52;;;1.42;;
25952;SDS011;13750;50.804;8.764;2023-07-29T03:23:34;1.30;;;1.20;;
25952;SDS011;13750;50.804;8.764;2023-07-29T03:26:01;1.98;;;1.77;;
25952;SDS011;13750;50.804;8.764;2023-07-29T03:28:29;2.05;;;1.85;;
25952;SDS011;13750;50.804;8.764;2023-07-29T03:30:57;1.83;;;1.73;;
25952;SDS011;13750;50.804;8.764;2023-07-29T03:33:24;1.80;;;1.70;;
25952;SDS011;13750;50.804;8.764;2023-07-29T03:38:15;1.50;;;1.40;;
25952;SDS011;13750;50.804;8.764;2023-07-29T03:40:41;1.73;;;1.63;;
25952;SDS011;13750;50.804;8.764;2023-07-29T03:43:07;1.70;;;1.60;;
25952;SDS011;13750;50.804;8.764;2023-07-29T03:45:33;2.13;;;1.97;;
25952;SDS011;13750;50.804;8.764;2023-07-29T03:47:59;1.80;;;1.70;;
25952;SDS011;13750;50.804;8.764;2023-07-29T03:50:25;1.57;;;1.47;;
25952;SDS011;13750;50.804;8.764;2023-07-29T03:52:51;1.67;;;1.40;;
25952;SDS011;13750;50.804;8.764;2023-07-29T03:55:17;1.60;;;1.50;;
25952;SDS011;13750;50.804;8.764;2023-07-29T03:57:43;1.67;;;1.58;;
25952;SDS011;13750;50.804;8.764;2023-07-29T04:00:09;2.13;;;1.93;;
25952;SDS011;13750;50.804;8.764;2023-07-29T04:02:35;2.03;;;1.83;;
25952;SDS011;13750;50.804;8.764;2023-07-29T04:05:03;2.35;;;2.15;;
25952;SDS011;13750;50.804;8.764;2023-07-29T04:07:29;2.67;;;2.45;;
25952;SDS011;13750;50.804;8.764;2023-07-29T04:09:55;3.03;;;2.75;;
25952;SDS011;13750;50.804;8.764;2023-07-29T04:12:21;3.30;;;3.00;;
25952;SDS011;13750;50.804;8.764;2023-07-29T04:14:47;3.05;;;2.75;;
25952;SDS011;13750;50.804;8.764;2023-07-29T04:17:13;3.53;;;3.23;;
25952;SDS011;13750;50.804;8.764;2023-07-29T04:19:38;3.23;;;2.93;;
25952;SDS011;13750;50.804;8.764;2023-07-29T04:22:04;2.50;;;2.30;;
25952;SDS011;13750;50.804;8.764;2023-07-29T04:24:30;3.07;;;2.70;;
25952;SDS011;13750;50.804;8.764;2023-07-29T04:26:55;2.80;;;2.60;;
25952;SDS011;13750;50.804;8.764;2023-07-29T04:29:21;2.60;;;2.40;;
25952;SDS011;13750;50.804;8.764;2023-07-29T04:34:13;2.55;;;2.35;;
25952;SDS011;13750;50.804;8.764;2023-07-29T04:36:39;2.50;;;2.30;;
25952;SDS011;13750;50.804;8.764;2023-07-29T04:39:04;2.57;;;2.37;;
25952;SDS011;13750;50.804;8.764;2023-07-29T04:41:30;2.50;;;2.30;;
25952;SDS011;13750;50.804;8.764;2023-07-29T04:43:56;2.63;;;2.43;;
25952;SDS011;13750;50.804;8.764;2023-07-29T04:46:21;3.47;;;3.17;;
25952;SDS011;13750;50.804;8.764;2023-07-29T04:48:47;3.40;;;3.10;;
25952;SDS011;13750;50.804;8.764;2023-07-29T04:51:12;2.87;;;2.63;;
25952;SDS011;13750;50.804;8.764;2023-07-29T04:53:38;2.10;;;1.90;;
25952;SDS011;13750;50.804;8.764;2023-07-29T04:56:04;2.87;;;2.57;;
25952;SDS011;13750;50.804;8.764;2023-07-29T04:58:29;3.08;;;2.78;;
25952;SDS011;13750;50.804;8.764;2023-07-29T05:00:55;3.10;;;2.73;;
25952;SDS011;13750;50.804;8.764;2023-07-29T05:03:21;2.80;;;2.50;;
25952;SDS011;13750;50.804;8.764;2023-07-29T05:05:47;2.47;;;2.27;;
25952;SDS011;13750;50.804;8.764;2023-07-29T05:08:12;3.27;;;2.97;;
25952;SDS011;13750;50.804;8.764;2023-07-29T05:10:38;3.17;;;2.83;;
25952;SDS011;13750;50.804;8.764;2023-07-29T05:13:03;3.33;;;2.80;;
25952;SDS011;13750;50.804;8.764;2023-07-29T05:15:29;3.17;;;2.87;;
25952;SDS011;13750;50.804;8.764;2023-07-29T05:17:55;4.45;;;3.80;;
25952;SDS011;13750;50.804;8.764;2023-07-29T05:20:21;4.50;;;4.10;;
25952;SDS011;13750;50.804;8.764;2023-07-29T05:22:46;3.93;;;3.53;;
25952;SDS011;13750;50.804;8.764;2023-07-29T05:25:12;4.17;;;3.70;;
25952;SDS011;13750;50.804;8.764;2023-07-29T05:27:37;3.97;;;3.60;;
25952;SDS011;13750;50.804;8.764;2023-07-29T05:30:03;3.57;;;3.27;;
25952;SDS011;13750;50.804;8.764;2023-07-29T05:32:29;4.20;;;3.80;;
25952;SDS011;13750;50.804;8.764;2023-07-29T05:34:54;4.20;;;3.67;;
25952;SDS011;13750;50.804;8.764;2023-07-29T05:37:20;4.33;;;3.93;;
25952;SDS011;13750;50.804;8.764;2023-07-29T05:39:45;4.10;;;3.70;;
25952;SDS011;13750;50.804;8.764;2023-07-29T05:42:11;4.93;;;4.43;;
25952;SDS011;13750;50.804;8.764;2023-07-29T05:44:37;5.13;;;4.63;;
25952;SDS011;13750;50.804;8.764;2023-07-29T05:47:02;5.47;;;4.77;;
25952;SDS011;13750;50.804;8.764;2023-07-29T05:49:28;4.67;;;4.23;;
25952;SDS011;13750;50.804;8.764;2023-07-29T05:51:53;6.90;;;6.20;;
25952;SDS011;13750;50.804;8.764;2023-07-29T05:54:19;6.13;;;5.53;;
25952;SDS011;13750;50.804;8.764;2023-07-29T05:56:45;7.37;;;6.57;;
25952;SDS011;13750;50.804;8.764;2023-07-29T05:59:10;6.33;;;5.70;;
25952;SDS011;13750;50.804;8.764;2023-07-29T06:01:36;6.47;;;5.87;;
25952;SDS011;13750;50.804;8.764;2023-07-29T06:04:01;7.47;;;5.93;;
25952;SDS011;13750;50.804;8.764;2023-07-29T06:06:27;6.03;;;5.53;;
25952;SDS011;13750;50.804;8.764;2023-07-29T06:08:53;5.30;;;4.80;;
25952;SDS011;13750;50.804;8.764;2023-07-29T06:11:18;6.40;;;5.80;;
25952;SDS011;13750;50.804;8.764;2023-07-29T06:13:44;5.80;;;5.23;;
25952;SDS011;13750;50.804;8.764;2023-07-29T06:18:36;5.07;;;4.57;;
25952;SDS011;13750;50.804;8.764;2023-07-29T06:21:01;5.07;;;4.60;;
25952;SDS011;13750;50.804;8.764;2023-07-29T06:23:27;6.20;;;5.30;;
25952;SDS011;13750;50.804;8.764;2023-07-29T06:25:53;5.73;;;5.23;;
25952;SDS011;13750;50.804;8.764;2023-07-29T06:28:18;4.90;;;4.40;;
25952;SDS011;13750;50.804;8.764;2023-07-29T06:30:44;4.87;;;4.37;;
25952;SDS011;13750;50.804;8.764;2023-07-29T06:33:09;5.47;;;4.10;;
25952;SDS011;13750;50.804;8.764;2023-07-29T06:35:35;3.97;;;3.57;;
25952;SDS011;13750;50.804;8.764;2023-07-29T06:38:00;4.33;;;3.93;;
25952;SDS011;13750;50.804;8.764;2023-07-29T06:40:26;4.27;;;3.87;;
25952;SDS011;13750;50.804;8.764;2023-07-29T06:42:51;3.90;;;3.50;;
25952;SDS011;13750;50.804;8.764;2023-07-29T06:45:17;3.77;;;3.47;;
25952;SDS011;13750;50.804;8.764;2023-07-29T06:47:43;3.80;;;3.50;;
25952;SDS011;13750;50.804;8.764;2023-07-29T06:50:08;3.60;;;3.30;;
25952;SDS011;13750;50.804;8.764;2023-07-29T06:52:34;3.37;;;3.03;;
25952;SDS011;13750;50.804;8.764;2023-07-29T06:55:01;3.38;;;3.08;;
25952;SDS011;13750;50.804;8.764;2023-07-29T06:57:27;3.37;;;3.07;;
25952;SDS011;13750;50.804;8.764;2023-07-29T06:59:52;3.53;;;3.17;;
25952;SDS011;13750;50.804;8.764;2023-07-29T07:02:18;3.40;;;2.60;;
25952;SDS011;13750;50.804;8.764;2023-07-29T07:04:43;2.63;;;2.43;;
25952;SDS011;13750;50.804;8.764;2023-07-29T07:07:09;2.80;;;2.60;;
25952;SDS011;13750;50.804;8.764;2023-07-29T07:09:34;2.17;;;1.97;;
25952;SDS011;13750;50.804;8.764;2023-07-29T07:12:00;2.00;;;1.80;;
25952;SDS011;13750;50.804;8.764;2023-07-29T07:14:25;2.13;;;1.93;;
25952;SDS011;13750;50.804;8.764;2023-07-29T07:16:51;2.33;;;2.13;;
25952;SDS011;13750;50.804;8.764;2023-07-29T07:19:17;2.30;;;2.10;;
25952;SDS011;13750;50.804;8.764;2023-07-29T07:21:43;2.55;;;2.25;;
25952;SDS011;13750;50.804;8.764;2023-07-29T07:24:08;2.10;;;1.80;;
25952;SDS011;13750;50.804;8.764;2023-07-29T07:26:34;1.73;;;1.63;;
25952;SDS011;13750;50.804;8.764;2023-07-29T07:28:59;1.97;;;1.50;;
25952;SDS011;13750;50.804;8.764;2023-07-29T07:31:25;1.73;;;1.63;;
25952;SDS011;13750;50.804;8.764;2023-07-29T07:33:50;2.00;;;1.80;;
25952;SDS011;13750;50.804;8.764;2023-07-29T07:36:16;2.10;;;1.90;;
25952;SDS011;13750;50.804;8.764;2023-07-29T07:38:41;1.40;;;1.30;;
25952;SDS011;13750;50.804;8.764;2023-07-29T07:41:07;2.03;;;1.83;;
25952;SDS011;13750;50.804;8.764;2023-07-29T07:43:32;1.67;;;1.57;;
25952;SDS011;13750;50.804;8.764;2023-07-29T07:45:58;1.83;;;1.73;;
25952;SDS011;13750;50.804;8.764;2023-07-29T07:48:25;1.70;;;1.60;;
25952;SDS011;13750;50.804;8.764;2023-07-29T07:50:52;1.73;;;1.63;;
25952;SDS011;13750;50.804;8.764;2023-07-29T07:53:17;2.27;;;2.07;;
25952;SDS011;13750;50.804;8.764;2023-07-29T07:55:44;2.13;;;1.90;;
25952;SDS011;13750;50.804;8.764;2023-07-29T07:58:10;1.50;;;1.40;;
25952;SDS011;13750;50.804;8.764;2023-07-29T08:00:35;2.73;;;2.07;;
25952;SDS011;13750;50.804;8.764;2023-07-29T08:03:01;2.30;;;2.10;;
25952;SDS011;13750;50.804;8.764;2023-07-29T08:05:27;2.27;;;1.90;;
25952;SDS011;13750;50.804;8.764;2023-07-29T08:07:52;1.90;;;1.70;;
25952;SDS011;13750;50.804;8.764;2023-07-29T08:10:18;2.17;;;1.97;;
25952;SDS011;13750;50.804;8.764;2023-07-29T08:12:44;2.13;;;1.93;;
25952;SDS011;13750;50.804;8.764;2023-07-29T08:15:09;2.40;;;1.97;;
25952;SDS011;13750;50.804;8.764;2023-07-29T08:17:35;2.13;;;1.93;;
25952;SDS011;13750;50.804;8.764;2023-07-29T08:20:00;2.37;;;2.17;;
25952;SDS011;13750;50.804;8.764;2023-07-29T08:22:26;2.63;;;2.37;;
25952;SDS011;13750;50.804;8.764;2023-07-29T08:24:51;2.10;;;1.73;;
25952;SDS011;13750;50.804;8.764;2023-07-29T08:27:17;2.42;;;1.67;;
25952;SDS011;13750;50.804;8.764;2023-07-29T08:29:43;1.70;;;1.60;;
25952;SDS011;13750;50.804;8.764;2023-07-29T08:32:08;1.63;;;1.53;;
25952;SDS011;13750;50.804;8.764;2023-07-29T08:34:34;1.93;;;1.73;;
25952;SDS011;13750;50.804;8.764;2023-07-29T08:36:59;1.50;;;1.40;;
25952;SDS011;13750;50.804;8.764;2023-07-29T08:39:25;1.73;;;1.60;;
25952;SDS011;13750;50.804;8.764;2023-07-29T08:41:57;2.47;;;2.28;;
25952;SDS011;13750;50.804;8.764;2023-07-29T08:44:40;2.33;;;2.13;;
25952;SDS011;13750;50.804;8.764;2023-07-29T08:47:07;2.28;;;2.08;;
25952;SDS011;13750;50.804;8.764;2023-07-29T08:49:32;1.63;;;1.53;;
25952;SDS011;13750;50.804;8.764;2023-07-29T08:51:59;2.22;;;2.03;;
25952;SDS011;13750;50.804;8.764;2023-07-29T08:54:26;2.15;;;1.95;;
25952;SDS011;13750;50.804;8.764;2023-07-29T08:56:51;2.10;;;1.90;;
25952;SDS011;13750;50.804;8.764;2023-07-29T08:59:17;1.80;;;1.60;;
25952;SDS011;13750;50.804;8.764;2023-07-29T09:04:10;1.80;;;1.60;;
25952;SDS011;13750;50.804;8.764;2023-07-29T09:06:35;1.73;;;1.63;;
25952;SDS011;13750;50.804;8.764;2023-07-29T09:09:03;1.50;;;1.40;;
25952;SDS011;13750;50.804;8.764;2023-07-29T09:11:28;1.80;;;1.47;;
25952;SDS011;13750;50.804;8.764;2023-07-29T09:13:55;1.13;;;1.10;;
25952;SDS011;13750;50.804;8.764;2023-07-29T09:16:20;1.23;;;1.13;;
25952;SDS011;13750;50.804;8.764;2023-07-29T09:18:50;1.35;;;1.25;;
25952;SDS011;13750;50.804;8.764;2023-07-29T09:21:22;1.40;;;1.30;;
25952;SDS011;13750;50.804;8.764;2023-07-29T09:26:26;1.27;;;1.17;;
25952;SDS011;13750;50.804;8.764;2023-07-29T09:28:53;1.27;;;1.17;;
25952;SDS011;13750;50.804;8.764;2023-07-29T09:31:21;3.33;;;1.80;;
25952;SDS011;13750;50.804;8.764;2023-07-29T09:33:48;1.95;;;1.23;;
25952;SDS011;13750;50.804;8.764;2023-07-29T09:36:13;1.43;;;1.30;;
25952;SDS011;13750;50.804;8.764;2023-07-29T09:38:39;1.50;;;1.40;;
25952;SDS011;13750;50.804;8.764;2023-07-29T09:41:05;1.50;;;1.40;;
25952;SDS011;13750;50.804;8.764;2023-07-29T09:43:34;2.23;;;1.27;;
25952;SDS011;13750;50.804;8.764;2023-07-29T09:46:00;1.20;;;1.10;;
25952;SDS011;13750;50.804;8.764;2023-07-29T09:48:27;1.20;;;1.10;;
25952;SDS011;13750;50.804;8.764;2023-07-29T09:50:56;1.10;;;1.00;;
25952;SDS011;13750;50.804;8.764;2023-07-29T09:53:22;1.73;;;1.20;;
25952;SDS011;13750;50.804;8.764;2023-07-29T09:55:47;1.70;;;1.33;;
25952;SDS011;13750;50.804;8.764;2023-07-29T09:58:15;1.23;;;1.13;;
25952;SDS011;13750;50.804;8.764;2023-07-29T10:00:50;1.33;;;1.23;;
25952;SDS011;13750;50.804;8.764;2023-07-29T10:03:16;1.52;;;1.20;;
25952;SDS011;13750;50.804;8.764;2023-07-29T10:05:45;1.85;;;1.48;;
25952;SDS011;13750;50.804;8.764;2023-07-29T10:08:11;1.20;;;1.10;;
25952;SDS011;13750;50.804;8.764;2023-07-29T10:13:03;1.17;;;1.08;;
25952;SDS011;13750;50.804;8.764;2023-07-29T10:15:29;1.20;;;1.10;;
25952;SDS011;13750;50.804;8.764;2023-07-29T10:17:57;1.33;;;1.23;;
25952;SDS011;13750;50.804;8.764;2023-07-29T10:20:23;1.02;;;0.93;;
25952;SDS011;13750;50.804;8.764;2023-07-29T10:22:49;1.40;;;1.10;;
25952;SDS011;13750;50.804;8.764;2023-07-29T10:25:17;0.80;;;0.80;;
25952;SDS011;13750;50.804;8.764;2023-07-29T10:27:52;1.30;;;1.10;;
25952;SDS011;13750;50.804;8.764;2023-07-29T10:30:28;1.00;;;0.90;;
25952;SDS011;13750;50.804;8.764;2023-07-29T10:32:54;1.33;;;1.17;;
25952;SDS011;13750;50.804;8.764;2023-07-29T10:35:23;0.98;;;0.88;;
25952;SDS011;13750;50.804;8.764;2023-07-29T10:37:49;1.27;;;1.17;;
25952;SDS011;13750;50.804;8.764;2023-07-29T10:40:18;1.05;;;0.80;;
25952;SDS011;13750;50.804;8.764;2023-07-29T10:43:18;0.95;;;0.85;;
25952;SDS011;13750;50.804;8.764;2023-07-29T10:45:38;0.95;;;0.80;;
25952;SDS011;13750;50.804;8.764;2023-07-29T10:48:05;0.77;;;0.77;;
25952;SDS011;13750;50.804;8.764;2023-07-29T10:50:35;1.13;;;1.00;;
25952;SDS011;13750;50.804;8.764;2023-07-29T10:53:00;1.07;;;0.97;;
25952;SDS011;13750;50.804;8.764;2023-07-29T10:55:29;1.27;;;0.97;;
25952;SDS011;13750;50.804;8.764;2023-07-29T10:58:08;1.10;;;1.00;;
25952;SDS011;13750;50.804;8.764;2023-07-29T11:00:38;1.05;;;0.88;;
25952;SDS011;13750;50.804;8.764;2023-07-29T11:03:08;1.00;;;0.90;;
25952;SDS011;13750;50.804;8.764;2023-07-29T11:05:41;0.90;;;0.90;;
25952;SDS011;13750;50.804;8.764;2023-07-29T11:11:12;0.85;;;0.60;;
25952;SDS011;13750;50.804;8.764;2023-07-29T11:13:38;0.93;;;0.90;;
25952;SDS011;13750;50.804;8.764;2023-07-29T11:16:04;1.17;;;0.80;;
25952;SDS011;13750;50.804;8.764;2023-07-29T11:18:31;1.58;;;0.90;;
25952;SDS011;13750;50.804;8.764;2023-07-29T11:21:02;1.00;;;0.90;;
25952;SDS011;13750;50.804;8.764;2023-07-29T11:25:58;1.67;;;0.70;;
25952;SDS011;13750;50.804;8.764;2023-07-29T11:28:27;1.35;;;1.10;;
25952;SDS011;13750;50.804;8.764;2023-07-29T11:30:54;1.45;;;1.35;;
25952;SDS011;13750;50.804;8.764;2023-07-29T11:33:21;1.20;;;1.10;;
25952;SDS011;13750;50.804;8.764;2023-07-29T11:35:48;1.45;;;1.13;;
25952;SDS011;13750;50.804;8.764;2023-07-29T11:38:15;1.85;;;1.52;;
25952;SDS011;13750;50.804;8.764;2023-07-29T11:40:42;1.67;;;1.30;;
25952;SDS011;13750;50.804;8.764;2023-07-29T11:43:07;1.77;;;1.25;;
25952;SDS011;13750;50.804;8.764;2023-07-29T11:45:33;2.00;;;1.83;;
25952;SDS011;13750;50.804;8.764;2023-07-29T11:48:00;2.27;;;1.60;;
25952;SDS011;13750;50.804;8.764;2023-07-29T11:50:26;3.05;;;2.10;;
25952;SDS011;13750;50.804;8.764;2023-07-29T11:52:52;2.00;;;1.70;;
25952;SDS011;13750;50.804;8.764;2023-07-29T11:55:17;2.50;;;1.80;;
25952;SDS011;13750;50.804;8.764;2023-07-29T11:57:44;1.75;;;1.65;;
25952;SDS011;13750;50.804;8.764;2023-07-29T12:00:16;1.90;;;1.70;;
25952;SDS011;13750;50.804;8.764;2023-07-29T12:02:43;1.80;;;1.70;;
25952;SDS011;13750;50.804;8.764;2023-07-29T12:05:10;1.65;;;1.50;;
25952;SDS011;13750;50.804;8.764;2023-07-29T12:07:41;1.75;;;1.60;;
25952;SDS011;13750;50.804;8.764;2023-07-29T12:10:08;1.70;;;1.60;;
25952;SDS011;13750;50.804;8.764;2023-07-29T12:12:48;1.48;;;1.38;;
25952;SDS011;13750;50.804;8.764;2023-07-29T12:15:24;2.25;;;1.75;;
25952;SDS011;13750;50.804;8.764;2023-07-29T12:17:54;1.63;;;1.52;;
25952;SDS011;13750;50.804;8.764;2023-07-29T12:20:21;1.02;;;0.93;;
25952;SDS011;13750;50.804;8.764;2023-07-29T12:22:55;1.50;;;1.40;;
25952;SDS011;13750;50.804;8.764;2023-07-29T12:25:21;1.50;;;1.40;;
25952;SDS011;13750;50.804;8.764;2023-07-29T12:27:48;1.73;;;1.42;;
25952;SDS011;13750;50.804;8.764;2023-07-29T12:30:13;1.70;;;1.47;;
25952;SDS011;13750;50.804;8.764;2023-07-29T12:32:43;2.63;;;2.10;;
25952;SDS011;13750;50.804;8.764;2023-07-29T12:35:09;2.78;;;2.47;;
25952;SDS011;13750;50.804;8.764;2023-07-29T12:37:35;2.07;;;1.97;;
25952;SDS011;13750;50.804;8.764;2023-07-29T12:40:01;2.17;;;2.00;;
25952;SDS011;13750;50.804;8.764;2023-07-29T12:42:27;1.83;;;1.73;;
25952;SDS011;13750;50.804;8.764;2023-07-29T12:44:53;2.27;;;1.97;;
25952;SDS011;13750;50.804;8.764;2023-07-29T12:47:18;2.30;;;1.80;;
25952;SDS011;13750;50.804;8.764;2023-07-29T12:49:44;1.77;;;1.67;;
25952;SDS011;13750;50.804;8.764;2023-07-29T12:52:09;2.27;;;2.07;;
25952;SDS011;13750;50.804;8.764;2023-07-29T12:54:35;2.27;;;1.93;;
25952;SDS011;13750;50.804;8.764;2023-07-29T12:57:00;2.87;;;2.63;;
25952;SDS011;13750;50.804;8.764;2023-07-29T12:59:26;2.07;;;1.97;;
25952;SDS011;13750;50.804;8.764;2023-07-29T13:01:51;2.20;;;2.00;;
25952;SDS011;13750;50.804;8.764;2023-07-29T13:04:17;2.30;;;2.10;;
25952;SDS011;13750;50.804;8.764;2023-07-29T13:06:42;2.07;;;1.87;;
25952;SDS011;13750;50.804;8.764;2023-07-29T13:09:08;1.87;;;1.73;;
25952;SDS011;13750;50.804;8.764;2023-07-29T13:11:33;1.60;;;1.50;;
25952;SDS011;13750;50.804;8.764;2023-07-29T13:13:59;1.67;;;1.50;;
25952;SDS011;13750;50.804;8.764;2023-07-29T13:16:25;2.00;;;1.88;;
25952;SDS011;13750;50.804;8.764;2023-07-29T13:18:51;1.50;;;1.40;;
25952;SDS011;13750;50.804;8.764;2023-07-29T13:21:17;1.67;;;1.57;;
25952;SDS011;13750;50.804;8.764;2023-07-29T13:23:42;1.63;;;1.53;;
25952;SDS011;13750;50.804;8.764;2023-07-29T13:26:08;1.40;;;1.30;;
25952;SDS011;13750;50.804;8.764;2023-07-29T13:28:33;1.40;;;1.30;;
25952;SDS011;13750;50.804;8.764;2023-07-29T13:30:59;2.10;;;1.60;;
25952;SDS011;13750;50.804;8.764;2023-07-29T13:33:25;1.60;;;1.50;;
25952;SDS011;13750;50.804;8.764;2023-07-29T13:35:51;1.53;;;1.43;;
25952;SDS011;13750;50.804;8.764;2023-07-29T13:38:16;1.93;;;1.30;;
25952;SDS011;13750;50.804;8.764;2023-07-29T13:40:42;1.67;;;1.30;;
25952;SDS011;13750;50.804;8.764;2023-07-29T13:43:08;1.57;;;1.43;;
25952;SDS011;13750;50.804;8.764;2023-07-29T13:45:34;1.50;;;1.10;;
25952;SDS011;13750;50.804;8.764;2023-07-29T13:47:59;1.20;;;0.90;;
25952;SDS011;13750;50.804;8.764;2023-07-29T13:50:25;1.60;;;1.10;;
25952;SDS011;13750;50.804;8.764;2023-07-29T13:52:50;1.93;;;1.10;;
25952;SDS011;13750;50.804;8.764;2023-07-29T13:55:16;0.83;;;0.77;;
25952;SDS011;13750;50.804;8.764;2023-07-29T13:57:41;1.13;;;1.00;;
25952;SDS011;13750;50.804;8.764;2023-07-29T14:00:07;1.00;;;0.90;;
25952;SDS011;13750;50.804;8.764;2023-07-29T14:02:33;1.50;;;1.05;;
25952;SDS011;13750;50.804;8.764;2023-07-29T14:04:59;1.77;;;0.90;;
25952;SDS011;13750;50.804;8.764;2023-07-29T14:07:24;1.00;;;0.90;;
25952;SDS011;13750;50.804;8.764;2023-07-29T14:09:50;0.67;;;0.67;;
25952;SDS011;13750;50.804;8.764;2023-07-29T14:12:15;1.03;;;0.80;;
25952;SDS011;13750;50.804;8.764;2023-07-29T14:14:41;1.10;;;0.80;;
25952;SDS011;13750;50.804;8.764;2023-07-29T14:17:07;1.27;;;0.60;;
25952;SDS011;13750;50.804;8.764;2023-07-29T14:19:36;0.80;;;0.63;;
25952;SDS011;13750;50.804;8.764;2023-07-29T14:22:02;1.27;;;0.70;;
25952;SDS011;13750;50.804;8.764;2023-07-29T14:24:28;0.57;;;0.57;;
25952;SDS011;13750;50.804;8.764;2023-07-29T14:26:53;0.63;;;0.60;;
25952;SDS011;13750;50.804;8.764;2023-07-29T14:29:19;0.50;;;0.50;;
25952;SDS011;13750;50.804;8.764;2023-07-29T14:31:44;1.30;;;0.70;;
25952;SDS011;13750;50.804;8.764;2023-07-29T14:34:10;0.83;;;0.50;;
25952;SDS011;13750;50.804;8.764;2023-07-29T14:36:36;0.70;;;0.57;;
25952;SDS011;13750;50.804;8.764;2023-07-29T14:39:01;0.65;;;0.50;;
25952;SDS011;13750;50.804;8.764;2023-07-29T14:41:27;0.70;;;0.67;;
25952;SDS011;13750;50.804;8.764;2023-07-29T14:43:53;0.60;;;0.60;;
25952;SDS011;13750;50.804;8.764;2023-07-29T14:46:18;0.50;;;0.50;;
25952;SDS011;13750;50.804;8.764;2023-07-29T14:48:44;0.63;;;0.60;;
25952;SDS011;13750;50.804;8.764;2023-07-29T14:51:11;0.65;;;0.65;;
25952;SDS011;13750;50.804;8.764;2023-07-29T14:53:37;0.63;;;0.50;;
25952;SDS011;13750;50.804;8.764;2023-07-29T14:56:03;0.80;;;0.60;;
25952;SDS011;13750;50.804;8.764;2023-07-29T14:58:28;0.70;;;0.70;;
25952;SDS011;13750;50.804;8.764;2023-07-29T15:00:55;0.55;;;0.55;;
25952;SDS011;13750;50.804;8.764;2023-07-29T15:03:20;0.60;;;0.60;;
25952;SDS011;13750;50.804;8.764;2023-07-29T15:05:46;0.50;;;0.47;;
25952;SDS011;13750;50.804;8.764;2023-07-29T15:08:12;0.73;;;0.63;;
25952;SDS011;13750;50.804;8.764;2023-07-29T15:10:37;0.70;;;0.60;;